createdAt,value
2019-03-16T00:00:35.876Z,3.53
2019-03-16T00:03:25.217Z,4.65
2019-03-16T00:06:14.618Z,4.72
2019-03-16T00:09:04.584Z,4.63
2019-03-16T00:11:54.120Z,4.27
2019-03-16T00:14:43.350Z,4.58
2019-03-16T00:17:33.037Z,3.73
2019-03-16T00:20:22.294Z,4.53
2019-03-16T00:23:11.465Z,5.25
2019-03-16T00:26:00.302Z,4.83
2019-03-16T00:28:49.595Z,4.70
2019-03-16T00:31:38.737Z,4.30
2019-03-16T00:34:28.642Z,5.17
2019-03-16T00:37:17.640Z,5.12
2019-03-16T00:40:10.462Z,4.87
2019-03-16T00:42:59.042Z,4.05
2019-03-16T00:45:48.506Z,5.20
2019-03-16T00:48:37.743Z,5.03
2019-03-16T00:51:27.240Z,6.97
2019-03-16T00:54:16.129Z,4.08
2019-03-16T00:57:05.364Z,5.05
2019-03-16T00:59:54.700Z,4.20
2019-03-16T01:02:44.196Z,4.72
2019-03-16T01:05:34.091Z,4.10
2019-03-16T01:08:22.895Z,5.30
2019-03-16T01:11:12.218Z,6.08
2019-03-16T01:14:01.950Z,4.58
2019-03-16T01:16:50.965Z,5.08
2019-03-16T01:19:40.014Z,5.00
2019-03-16T01:22:29.783Z,4.85
2019-03-16T01:25:18.990Z,4.53
2019-03-16T01:28:07.836Z,4.87
2019-03-16T01:30:56.897Z,4.70
2019-03-16T01:33:46.474Z,6.35
2019-03-16T01:36:35.794Z,5.03
2019-03-16T01:39:25.019Z,3.65
2019-03-16T01:42:14.023Z,4.10
2019-03-16T01:45:03.361Z,3.15
2019-03-16T01:47:52.430Z,4.42
2019-03-16T01:50:41.685Z,4.95
2019-03-16T01:53:30.707Z,4.15
2019-03-16T01:56:20.019Z,4.92
2019-03-16T01:59:08.889Z,4.60
2019-03-16T02:01:58.456Z,4.42
2019-03-16T02:04:47.595Z,4.50
2019-03-16T02:07:36.584Z,5.45
2019-03-16T02:10:25.631Z,4.95
2019-03-16T02:13:14.702Z,4.40
2019-03-16T02:16:10.782Z,4.65
2019-03-16T02:18:54.485Z,5.60
2019-03-16T02:21:43.945Z,4.28
2019-03-16T02:24:33.437Z,4.70
2019-03-16T02:27:22.745Z,5.00
2019-03-16T02:30:13.587Z,4.15
2019-03-16T02:33:12.834Z,4.65
2019-03-16T02:35:52.763Z,4.50
2019-03-16T02:38:41.597Z,4.53
2019-03-16T02:41:30.986Z,5.08
2019-03-16T02:44:20.279Z,4.45
2019-03-16T02:47:09.092Z,3.60
2019-03-16T02:49:58.161Z,3.92
2019-03-16T02:52:49.778Z,4.95
2019-03-16T02:55:37.688Z,3.72
2019-03-16T02:58:26.928Z,3.70
2019-03-16T03:01:16.321Z,4.42
2019-03-16T03:04:06.042Z,4.62
2019-03-16T03:06:54.939Z,4.60
2019-03-16T03:09:44.034Z,5.50
2019-03-16T03:12:33.466Z,3.93
2019-03-16T03:15:22.869Z,4.03
2019-03-16T03:18:12.010Z,4.28
2019-03-16T03:21:01.328Z,5.08
2019-03-16T03:23:50.035Z,4.78
2019-03-16T03:26:39.397Z,5.47
2019-03-16T03:29:28.461Z,5.20
2019-03-16T03:32:17.988Z,4.05
2019-03-16T03:35:09.063Z,5.10
2019-03-16T03:37:57.658Z,5.30
2019-03-16T03:40:46.985Z,5.42
2019-03-16T03:43:36.142Z,4.83
2019-03-16T03:46:25.726Z,3.52
2019-03-16T03:49:15.125Z,3.90
2019-03-16T03:52:04.601Z,4.87
2019-03-16T03:54:54.168Z,5.12
2019-03-16T03:57:43.219Z,5.45
2019-03-16T04:00:32.585Z,4.35
2019-03-16T04:03:21.337Z,4.72
2019-03-16T04:06:10.725Z,4.33
2019-03-16T04:09:00.287Z,5.43
2019-03-16T04:11:49.561Z,4.20
2019-03-16T04:14:38.644Z,4.90
2019-03-16T04:17:27.483Z,4.58
2019-03-16T04:20:16.908Z,4.55
2019-03-16T04:23:05.817Z,4.12
2019-03-16T04:25:54.809Z,3.60
2019-03-16T04:28:44.444Z,3.87
2019-03-16T04:31:33.942Z,4.10
2019-03-16T04:34:29.014Z,4.40
2019-03-16T04:37:13.399Z,4.50
2019-03-16T04:40:05.249Z,4.97
2019-03-16T04:42:54.390Z,5.00
2019-03-16T04:45:43.911Z,4.55
2019-03-16T04:48:33.159Z,3.62
2019-03-16T04:51:22.782Z,4.42
2019-03-16T04:54:11.774Z,4.33
2019-03-16T04:57:01.040Z,4.50
2019-03-16T04:59:50.317Z,4.45
2019-03-16T05:02:39.727Z,3.87
2019-03-16T05:05:28.534Z,4.97
2019-03-16T05:08:17.838Z,4.10
2019-03-16T05:11:07.242Z,4.37
2019-03-16T05:13:56.206Z,4.97
2019-03-16T05:16:44.907Z,6.05
2019-03-16T05:19:33.819Z,4.17
2019-03-16T05:22:23.171Z,4.80
2019-03-16T05:25:12.903Z,4.10
2019-03-16T05:28:02.209Z,5.95
2019-03-16T05:30:51.757Z,3.42
2019-03-16T05:33:41.418Z,4.65
2019-03-16T05:36:30.511Z,3.70
2019-03-16T05:39:19.866Z,3.42
2019-03-16T05:42:08.946Z,4.08
2019-03-16T05:44:58.002Z,5.60
2019-03-16T05:47:47.586Z,4.20
2019-03-16T05:50:36.755Z,3.95
2019-03-16T05:53:25.919Z,3.50
2019-03-16T05:56:14.968Z,3.95
2019-03-16T05:59:04.063Z,4.10
2019-03-16T06:01:52.986Z,3.90
2019-03-16T06:04:42.279Z,4.22
2019-03-16T06:07:31.235Z,3.52
2019-03-16T06:10:20.711Z,3.75
2019-03-16T06:13:09.666Z,4.53
2019-03-16T06:15:58.950Z,3.95
2019-03-16T06:18:47.373Z,3.80
2019-03-16T06:21:36.666Z,3.72
2019-03-16T06:24:28.156Z,3.67
2019-03-16T06:27:16.538Z,3.90
2019-03-16T06:30:15.955Z,4.12
2019-03-16T06:33:05.012Z,3.55
2019-03-16T06:35:54.262Z,3.55
2019-03-16T06:38:43.033Z,3.52
2019-03-16T06:41:32.334Z,3.98
2019-03-16T06:44:21.367Z,2.98
2019-03-16T06:47:10.666Z,3.37
2019-03-16T06:50:00.385Z,4.15
2019-03-16T06:52:49.507Z,3.42
2019-03-16T06:55:38.345Z,4.25
2019-03-16T06:58:26.908Z,3.25
2019-03-16T07:01:15.660Z,3.42
2019-03-16T07:04:04.439Z,3.70
2019-03-16T07:09:41.287Z,2.98
2019-03-16T07:12:30.488Z,3.37
2019-03-16T07:15:19.362Z,3.45
2019-03-16T07:18:08.718Z,3.57
2019-03-16T07:20:58.098Z,3.30
2019-03-16T07:23:47.971Z,3.83
2019-03-16T07:26:36.422Z,3.15
2019-03-16T07:29:25.793Z,3.25
2019-03-16T07:32:14.675Z,3.25
2019-03-16T07:35:03.610Z,3.50
2019-03-16T07:37:52.944Z,2.72
2019-03-16T07:40:42.451Z,3.65
2019-03-16T07:43:31.623Z,3.42
2019-03-16T07:46:20.058Z,3.12
2019-03-16T07:49:09.038Z,4.75
2019-03-16T07:51:58.161Z,3.50
2019-03-16T07:54:47.898Z,3.52
2019-03-16T07:57:40.504Z,3.70
2019-03-16T08:00:28.471Z,2.90
2019-03-16T08:03:17.544Z,3.10
2019-03-16T08:06:07.113Z,3.05
2019-03-16T08:08:56.188Z,2.72
2019-03-16T08:11:45.315Z,3.00
2019-03-16T08:14:34.882Z,3.40
2019-03-16T08:17:24.700Z,3.40
2019-03-16T08:23:02.600Z,3.45
2019-03-16T08:25:51.887Z,3.70
2019-03-16T08:42:42.086Z,3.80
2019-03-16T08:48:23.188Z,3.10
2019-03-16T08:53:59.159Z,3.20
2019-03-16T08:59:37.357Z,3.65
2019-03-16T09:02:26.116Z,3.35
2019-03-16T09:05:15.628Z,3.20
2019-03-16T09:08:04.895Z,4.30
2019-03-16T09:10:54.680Z,2.70
2019-03-16T09:16:32.598Z,3.45
2019-03-16T09:19:21.676Z,3.53
2019-03-16T09:22:11.133Z,4.08
2019-03-16T09:25:00.817Z,2.90
2019-03-16T09:27:50.102Z,2.70
2019-03-16T09:30:39.565Z,2.50
2019-03-16T09:33:32.402Z,2.55
2019-03-16T09:36:21.965Z,3.17
2019-03-16T09:39:11.147Z,3.02
2019-03-16T09:42:00.653Z,3.27
2019-03-16T09:44:49.616Z,2.62
2019-03-16T09:47:38.757Z,2.95
2019-03-16T09:50:27.609Z,2.47
2019-03-16T09:53:17.015Z,2.60
2019-03-16T09:56:05.914Z,2.22
2019-03-16T09:58:55.023Z,2.67
2019-03-16T10:01:43.803Z,2.25
2019-03-16T10:04:33.086Z,3.85
2019-03-16T10:07:22.082Z,2.87
2019-03-16T10:10:16.094Z,2.65
2019-03-16T10:13:05.553Z,2.50
2019-03-16T10:15:55.039Z,2.40
2019-03-16T10:21:32.660Z,3.55
2019-03-16T10:24:21.965Z,3.62
2019-03-16T10:27:10.789Z,3.52
2019-03-16T10:30:00.367Z,3.00
2019-03-16T10:32:50.966Z,2.90
2019-03-16T10:41:16.717Z,2.40
2019-03-16T10:44:05.992Z,2.60
2019-03-16T10:46:55.192Z,2.40
2019-03-16T10:49:44.936Z,2.35
2019-03-16T10:52:33.711Z,2.95
2019-03-16T10:58:11.415Z,2.60
2019-03-16T11:01:00.783Z,2.40
2019-03-16T11:03:49.798Z,3.40
2019-03-16T11:09:27.584Z,3.30
2019-03-16T11:12:16.670Z,3.00
2019-03-16T11:15:10.416Z,2.80
2019-03-16T11:17:59.848Z,2.40
2019-03-16T11:20:49.069Z,2.00
2019-03-16T11:23:38.309Z,2.08
2019-03-16T11:26:27.598Z,2.27
2019-03-16T11:29:16.685Z,2.45
2019-03-16T11:32:06.136Z,2.00
2019-03-16T11:34:54.914Z,2.33
2019-03-16T11:37:44.055Z,2.10
2019-03-16T11:40:33.392Z,2.90
2019-03-16T11:43:22.017Z,2.25
2019-03-16T11:46:11.250Z,2.05
2019-03-16T11:49:00.745Z,1.82
2019-03-16T11:51:49.865Z,2.00
2019-03-16T11:54:39.367Z,2.02
2019-03-16T11:57:28.317Z,2.30
2019-03-16T12:00:18.100Z,2.65
2019-03-16T12:03:07.208Z,3.00
2019-03-16T12:05:56.546Z,2.22
2019-03-16T12:08:46.075Z,2.50
2019-03-16T12:11:35.393Z,1.40
2019-03-16T12:14:24.249Z,1.50
2019-03-16T12:17:13.499Z,2.12
2019-03-16T12:20:02.343Z,1.80
2019-03-16T12:22:51.132Z,1.82
2019-03-16T12:25:40.231Z,1.70
2019-03-16T12:28:29.373Z,1.92
2019-03-16T12:31:18.358Z,2.08
2019-03-16T12:34:07.828Z,1.60
2019-03-16T12:36:56.903Z,1.75
2019-03-16T12:39:46.341Z,1.77
2019-03-16T12:42:35.117Z,1.42
2019-03-16T12:45:24.476Z,1.90
2019-03-16T12:48:13.644Z,1.55
2019-03-16T12:51:02.911Z,2.10
2019-03-16T12:53:52.154Z,2.37
2019-03-16T12:56:41.447Z,1.77
2019-03-16T12:59:30.520Z,1.50
2019-03-16T13:02:19.550Z,2.58
2019-03-16T13:05:09.262Z,2.15
2019-03-16T13:07:58.150Z,1.92
2019-03-16T13:10:47.489Z,1.80
2019-03-16T13:13:36.581Z,1.70
2019-03-16T13:16:26.131Z,1.80
2019-03-16T13:19:15.585Z,1.75
2019-03-16T13:22:04.307Z,2.05
2019-03-16T13:24:53.140Z,2.52
2019-03-16T13:27:41.721Z,2.85
2019-03-16T13:30:30.665Z,2.12
2019-03-16T13:33:20.304Z,1.72
2019-03-16T13:36:09.877Z,2.70
2019-03-16T13:38:58.847Z,2.00
2019-03-16T13:41:48.131Z,2.40
2019-03-16T13:44:37.667Z,2.63
2019-03-16T13:47:26.589Z,2.20
2019-03-16T13:50:20.552Z,2.40
2019-03-16T21:50:51.544Z,3.20
2019-03-16T22:07:42.272Z,5.80
2019-03-16T22:13:19.769Z,4.12
2019-03-16T22:16:11.638Z,3.45
2019-03-16T22:18:59.249Z,3.72
2019-03-16T22:21:48.781Z,4.22
2019-03-16T22:24:38.363Z,4.85
2019-03-16T22:27:27.702Z,3.80
2019-03-16T22:30:18.110Z,4.28
2019-03-16T22:33:07.697Z,4.62
2019-03-16T22:35:56.666Z,4.30
2019-03-16T22:38:45.735Z,3.80
2019-03-16T22:41:35.484Z,4.65
2019-03-16T22:44:24.611Z,3.50
2019-03-16T22:47:14.257Z,4.70
2019-03-16T22:50:03.214Z,6.53
2019-03-16T22:52:52.410Z,4.53
2019-03-16T22:55:41.651Z,4.43
2019-03-16T22:58:30.673Z,4.58
2019-03-16T23:01:20.569Z,5.40
2019-03-16T23:04:09.630Z,6.35
2019-03-16T23:06:59.040Z,4.30
2019-03-16T23:09:47.870Z,4.33
2019-03-16T23:12:37.370Z,3.60
2019-03-16T23:15:26.589Z,4.70
2019-03-16T23:18:15.502Z,4.10
2019-03-16T23:21:04.402Z,3.52
2019-03-16T23:23:53.831Z,4.07
2019-03-16T23:26:42.697Z,4.30
2019-03-16T23:29:31.852Z,4.58
2019-03-16T23:32:21.115Z,3.40
2019-03-16T23:35:10.501Z,4.08
2019-03-16T23:37:59.938Z,4.10
2019-03-16T23:40:49.451Z,3.77
2019-03-16T23:43:38.217Z,3.65
2019-03-16T23:46:27.169Z,4.58
2019-03-16T23:49:16.188Z,3.87
2019-03-16T23:52:05.302Z,4.17
2019-03-16T23:54:54.639Z,3.87
2019-03-16T23:57:46.489Z,3.77
